createdAt,value
2022-10-13T00:01:12.323Z,100059.16
2022-10-13T00:03:42.039Z,100050.50
2022-10-13T00:06:10.948Z,100049.59
2022-10-13T00:08:39.683Z,100051.34
2022-10-13T00:11:19.725Z,100048.75
2022-10-13T00:13:48.093Z,100047.88
2022-10-13T00:16:18.423Z,100047.00
2022-10-13T00:18:46.804Z,100051.31
2022-10-13T00:21:17.425Z,100053.06
2022-10-13T00:23:47.046Z,100050.50
2022-10-13T00:26:20.313Z,100047.00
2022-10-13T00:28:52.216Z,100047.00
2022-10-13T00:31:22.644Z,100048.75
2022-10-13T00:33:51.024Z,100057.41
2022-10-13T00:36:20.633Z,100057.37
2022-10-13T00:38:48.456Z,100050.47
2022-10-13T00:41:16.836Z,100047.88
2022-10-13T00:44:27.834Z,100053.09
2022-10-13T00:46:56.013Z,100056.56
2022-10-13T00:49:23.933Z,100052.22
2022-10-13T00:51:51.744Z,100047.00
2022-10-13T00:54:23.914Z,100046.12
2022-10-13T00:56:52.526Z,100039.19
2022-10-13T00:59:23.459Z,100044.41
2022-10-13T01:01:54.523Z,100041.78
2022-10-13T01:04:25.012Z,100034.84
2022-10-13T01:06:53.225Z,100039.09
2022-10-13T01:09:21.029Z,100040.94
2022-10-13T01:12:01.324Z,100045.28
2022-10-13T01:14:42.595Z,100047.00
2022-10-13T01:17:23.949Z,100043.53
2022-10-13T01:20:16.483Z,100047.00
2022-10-13T01:23:20.125Z,100050.47
2022-10-13T01:26:05.816Z,100053.09
2022-10-13T01:28:43.901Z,100047.00
2022-10-13T01:31:28.354Z,100043.53
2022-10-13T01:34:08.523Z,100041.81
2022-10-13T01:36:55.193Z,100035.66
2022-10-13T01:39:38.234Z,100032.81
2022-10-13T01:42:18.915Z,100040.81
2022-10-13T01:44:51.632Z,100040.91
2022-10-13T01:47:19.694Z,100031.31
2022-10-13T01:49:48.474Z,100031.31
2022-10-13T01:52:18.551Z,100031.31
2022-10-13T01:54:52.236Z,100029.59
2022-10-13T01:57:37.044Z,100025.22
2022-10-13T02:00:11.354Z,100024.31
2022-10-13T02:03:17.684Z,100024.31
2022-10-13T02:05:50.134Z,100017.41
2022-10-13T02:08:35.924Z,100020.91
2022-10-13T02:11:08.235Z,100018.28
2022-10-13T02:13:37.064Z,100022.59
2022-10-13T02:16:08.435Z,100025.25
2022-10-13T02:18:37.133Z,100026.97
2022-10-13T02:21:07.075Z,100021.75
2022-10-13T02:23:35.096Z,100020.84
2022-10-13T02:26:02.944Z,100028.66
2022-10-13T02:28:31.119Z,100025.22
2022-10-13T02:30:58.953Z,100021.72
2022-10-13T02:33:26.676Z,100028.22
2022-10-13T02:35:54.793Z,100027.69
2022-10-13T02:38:22.644Z,100025.22
2022-10-13T02:40:50.441Z,100024.34
2022-10-13T02:43:18.564Z,100023.44
2022-10-13T02:45:46.445Z,100021.69
2022-10-13T02:48:14.316Z,100014.75
2022-10-13T02:50:42.418Z,100024.28
2022-10-13T02:53:10.124Z,100029.28
2022-10-13T02:55:37.842Z,100029.31
2022-10-13T02:58:05.912Z,100021.69
2022-10-13T03:00:33.836Z,100027.75
2022-10-13T03:03:01.739Z,100026.03
2022-10-13T03:05:29.793Z,100024.88
2022-10-13T03:07:57.773Z,100025.78
2022-10-13T03:10:26.283Z,100030.22
2022-10-13T03:12:56.043Z,100020.00
2022-10-13T03:15:24.025Z,100025.00
2022-10-13T03:17:55.393Z,100027.78
2022-10-13T03:20:23.603Z,100025.19
2022-10-13T03:22:51.334Z,100022.53
2022-10-13T03:25:19.125Z,100019.00
2022-10-13T03:27:47.244Z,100021.28
2022-10-13T03:30:15.107Z,100021.38
2022-10-13T03:32:42.924Z,100017.28
2022-10-13T03:35:11.024Z,100010.81
2022-10-13T03:37:38.854Z,100015.38
2022-10-13T03:40:07.326Z,100016.41
2022-10-13T03:42:36.866Z,100012.94
2022-10-13T03:45:05.726Z,100009.47
2022-10-13T03:47:38.213Z,100014.59
2022-10-13T03:50:06.733Z,100010.19
2022-10-13T03:52:34.514Z,100004.91
2022-10-13T03:55:02.734Z,100010.06
2022-10-13T03:57:30.967Z,100009.34
2022-10-13T03:59:59.053Z,100008.56
2022-10-13T04:02:27.853Z,100005.94
2022-10-13T04:04:55.874Z,99999.78
2022-10-13T04:07:23.584Z,100011.53
2022-10-13T04:09:51.344Z,100008.28
2022-10-13T04:12:21.110Z,100007.47
2022-10-13T04:14:49.213Z,100010.50
2022-10-13T04:17:16.905Z,100001.50
2022-10-13T04:19:45.047Z,100001.59
2022-10-13T04:22:12.715Z,99998.75
2022-10-13T04:24:41.992Z,99997.00
2022-10-13T04:27:10.477Z,99993.50
2022-10-13T04:29:38.346Z,99994.53
2022-10-13T04:32:06.103Z,99997.62
2022-10-13T04:34:34.497Z,99999.56
2022-10-13T04:37:02.382Z,100008.53
2022-10-13T04:39:30.354Z,100005.88
2022-10-13T04:41:58.534Z,100002.19
2022-10-13T04:44:26.524Z,100003.16
2022-10-13T04:46:54.248Z,99996.28
2022-10-13T04:49:22.475Z,99997.97
2022-10-13T04:51:50.575Z,100002.31
2022-10-13T04:54:18.664Z,100006.69
2022-10-13T04:56:47.095Z,99998.84
2022-10-13T04:59:14.903Z,100004.06
2022-10-13T05:01:42.744Z,100007.28
2022-10-13T05:04:14.010Z,100001.28
2022-10-13T05:07:05.223Z,100001.38
2022-10-13T05:09:30.743Z,100008.09
2022-10-13T05:11:58.553Z,100008.22
2022-10-13T05:14:26.394Z,100000.69
2022-10-13T05:16:54.473Z,100006.81
2022-10-13T05:19:22.174Z,100004.94
2022-10-13T05:21:50.306Z,100008.16
2022-10-13T05:24:20.884Z,100003.09
2022-10-13T05:26:50.253Z,99998.09
2022-10-13T05:29:18.555Z,100004.66
2022-10-13T05:31:46.373Z,100011.03
2022-10-13T05:34:14.258Z,100007.66
2022-10-13T05:36:42.317Z,100003.37
2022-10-13T05:39:10.403Z,99995.53
2022-10-13T05:41:39.408Z,100002.50
2022-10-13T05:44:14.195Z,100001.59
2022-10-13T05:46:44.773Z,100010.25
2022-10-13T05:49:12.815Z,100010.94
2022-10-13T05:51:44.695Z,100010.28
2022-10-13T05:54:24.534Z,100015.44
2022-10-13T05:56:56.544Z,100017.25
2022-10-13T05:59:27.478Z,100015.75
2022-10-13T06:01:55.616Z,100018.94
2022-10-13T06:04:34.886Z,100019.78
2022-10-13T06:07:03.764Z,100017.91
2022-10-13T06:09:35.203Z,100027.28
2022-10-13T06:12:03.169Z,100032.50
2022-10-13T06:14:31.491Z,100028.81
2022-10-13T06:16:59.596Z,100029.72
2022-10-13T06:19:27.533Z,100030.87
2022-10-13T06:21:57.976Z,100038.72
2022-10-13T06:24:29.173Z,100042.31
2022-10-13T06:26:57.653Z,100040.25
2022-10-13T06:29:25.558Z,100033.91
2022-10-13T06:31:53.524Z,100029.25
2022-10-13T06:34:21.674Z,100036.47
2022-10-13T06:36:49.505Z,100034.91
2022-10-13T06:39:17.971Z,100035.34
2022-10-13T06:41:46.154Z,100030.69
2022-10-13T06:44:14.355Z,100034.94
2022-10-13T06:46:42.266Z,100034.31
2022-10-13T06:49:10.607Z,100035.44
2022-10-13T06:51:38.639Z,100034.97
2022-10-13T06:54:07.025Z,100040.31
2022-10-13T06:56:35.323Z,100034.44
2022-10-13T06:59:06.418Z,100034.16
2022-10-13T07:01:37.928Z,100035.62
2022-10-13T07:04:13.393Z,100041.38
2022-10-13T07:06:41.692Z,100030.84
2022-10-13T07:09:10.106Z,100032.25
2022-10-13T07:11:39.258Z,100035.34
2022-10-13T07:14:07.201Z,100039.69
2022-10-13T07:16:35.489Z,100034.59
2022-10-13T07:19:03.728Z,100034.63
2022-10-13T07:21:32.369Z,100031.38
2022-10-13T07:24:02.376Z,100031.44
2022-10-13T07:26:30.353Z,100025.88
2022-10-13T07:28:58.321Z,100031.50
2022-10-13T07:31:27.047Z,100030.31
2022-10-13T07:33:55.412Z,100043.66
2022-10-13T07:36:27.686Z,100030.69
2022-10-13T07:38:55.915Z,100028.38
2022-10-13T07:41:23.723Z,100025.06
2022-10-13T07:43:55.707Z,100033.22
2022-10-13T07:46:25.980Z,100035.03
2022-10-13T07:48:54.867Z,100034.38
2022-10-13T07:51:23.221Z,100028.50
2022-10-13T07:53:51.251Z,100028.88
2022-10-13T07:56:19.302Z,100021.34
2022-10-13T07:58:48.378Z,100032.03
2022-10-13T08:01:17.307Z,100036.53
2022-10-13T08:03:49.825Z,100030.84
2022-10-13T08:06:19.526Z,100023.03
2022-10-13T08:08:48.184Z,100032.94
2022-10-13T08:11:17.962Z,100017.59
2022-10-13T08:13:52.116Z,100018.50
2022-10-13T08:16:22.642Z,100018.28
2022-10-13T08:18:51.043Z,100025.59
2022-10-13T08:24:17.704Z,100018.09
2022-10-13T08:26:47.043Z,100016.31
2022-10-13T08:29:24.145Z,100013.09
2022-10-13T08:31:53.857Z,100013.13
2022-10-13T08:34:25.555Z,100005.47
2022-10-13T08:36:56.673Z,100002.97
2022-10-13T08:39:25.874Z,99999.41
2022-10-13T08:41:55.211Z,100000.06
2022-10-13T08:45:10.902Z,100001.22
2022-10-13T08:47:25.364Z,100001.16
2022-10-13T08:50:00.335Z,99991.63
2022-10-13T08:52:43.144Z,99994.09
2022-10-13T08:55:32.262Z,99996.72
2022-10-13T08:58:02.403Z,99990.91
2022-10-13T09:00:30.944Z,99986.97
2022-10-13T09:03:17.029Z,99987.34
2022-10-13T09:05:47.462Z,99990.84
2022-10-13T09:08:20.265Z,99988.75
2022-10-13T09:10:50.646Z,99992.53
2022-10-13T09:13:20.703Z,99994.41
2022-10-13T09:15:53.062Z,99992.53
2022-10-13T09:18:28.828Z,99989.47
2022-10-13T09:21:11.647Z,99982.53
2022-10-13T09:23:41.897Z,99974.44
2022-10-13T09:26:18.415Z,99978.28
2022-10-13T09:28:46.937Z,99977.87
2022-10-13T09:31:24.753Z,99980.63
2022-10-13T09:34:03.555Z,99972.75
2022-10-13T09:36:31.796Z,99977.34
2022-10-13T09:39:14.885Z,99972.91
2022-10-13T09:41:45.630Z,99970.47
2022-10-13T09:44:17.095Z,99972.31
2022-10-13T09:46:58.165Z,99970.06
2022-10-13T09:49:34.974Z,99974.28
2022-10-13T09:52:14.122Z,99961.34
2022-10-13T09:55:32.004Z,99971.66
2022-10-13T09:58:16.811Z,99968.19
2022-10-13T10:00:45.587Z,99964.53
2022-10-13T10:03:29.208Z,99967.31
2022-10-13T10:06:01.694Z,99962.03
2022-10-13T10:09:02.624Z,99963.28
2022-10-13T10:11:39.484Z,99961.91
2022-10-13T10:14:27.182Z,99958.78
2022-10-13T10:17:17.044Z,99954.06
2022-10-13T10:19:51.376Z,99951.75
2022-10-13T10:22:25.326Z,99951.41
2022-10-13T10:25:09.270Z,99941.28
2022-10-13T10:27:43.878Z,99941.25
2022-10-13T10:30:18.206Z,99939.66
2022-10-13T10:32:57.924Z,99938.94
2022-10-13T10:35:49.544Z,99934.72
2022-10-13T10:38:44.737Z,99934.75
2022-10-13T10:41:50.215Z,99934.63
2022-10-13T10:44:21.920Z,99934.19
2022-10-13T10:46:51.107Z,99927.03
2022-10-13T10:49:26.135Z,99918.72
2022-10-13T10:51:54.984Z,99923.59
2022-10-13T10:54:31.754Z,99924.81
2022-10-13T10:57:18.587Z,99915.94
2022-10-13T11:00:01.148Z,99908.00
2022-10-13T11:02:35.416Z,99903.06
2022-10-13T11:05:06.351Z,99899.09
2022-10-13T11:07:34.754Z,99901.41
2022-10-13T11:10:13.913Z,99902.06
2022-10-13T11:12:51.301Z,99896.06
2022-10-13T11:15:22.037Z,99890.88
2022-10-13T11:17:50.696Z,99895.63
2022-10-13T11:20:21.544Z,99883.22
2022-10-13T11:22:58.524Z,99883.56
2022-10-13T11:25:40.348Z,99885.53
2022-10-13T11:28:40.405Z,99885.81
2022-10-13T11:31:14.334Z,99875.34
2022-10-13T11:33:42.096Z,99863.19
2022-10-13T11:36:44.112Z,99865.53
2022-10-13T11:39:27.987Z,99860.84
2022-10-13T11:42:04.144Z,99867.16
2022-10-13T11:44:34.755Z,99863.22
2022-10-13T11:47:19.772Z,99859.28
2022-10-13T11:49:51.937Z,99849.84
2022-10-13T11:52:48.164Z,99844.12
2022-10-13T11:55:29.259Z,99845.56
2022-10-13T11:58:10.814Z,99835.66
2022-10-13T12:00:38.659Z,99833.37
2022-10-13T12:03:21.794Z,99832.06
2022-10-13T12:05:50.622Z,99836.62
2022-10-13T12:08:21.153Z,99829.72
2022-10-13T12:10:55.183Z,99833.31
2022-10-13T12:13:29.209Z,99827.19
2022-10-13T12:16:03.866Z,99826.19
2022-10-13T12:18:40.085Z,99822.47
2022-10-13T12:21:17.588Z,99827.22
2022-10-13T12:23:46.506Z,99819.69
2022-10-13T12:26:27.444Z,99818.78
2022-10-13T12:29:02.505Z,99820.16
2022-10-13T12:31:38.970Z,99817.28
2022-10-13T12:37:07.258Z,99802.56
2022-10-13T12:39:37.211Z,99809.63
2022-10-13T12:42:08.160Z,99809.84
2022-10-13T12:44:38.885Z,99802.91
2022-10-13T12:47:39.945Z,99796.13
2022-10-13T12:50:38.862Z,99796.66
2022-10-13T12:53:14.783Z,99795.28
2022-10-13T12:55:53.626Z,99800.50
2022-10-13T12:58:43.624Z,99796.28
2022-10-13T13:01:14.589Z,99795.47
2022-10-13T13:03:43.877Z,99793.94
2022-10-13T13:06:14.654Z,99797.75
2022-10-13T13:08:43.560Z,99792.53
2022-10-13T13:11:23.967Z,99789.47
2022-10-13T13:14:31.513Z,99793.78
2022-10-13T13:17:56.768Z,99785.22
2022-10-13T13:20:28.923Z,99783.97
2022-10-13T13:22:56.888Z,99775.03
2022-10-13T13:25:25.973Z,99766.03
2022-10-13T13:27:53.916Z,99768.56
2022-10-13T13:30:23.754Z,99769.44
2022-10-13T13:33:07.726Z,99767.72
2022-10-13T13:35:38.272Z,99768.44
2022-10-13T13:38:06.585Z,99765.06
2022-10-13T13:40:34.651Z,99763.34
2022-10-13T13:43:03.016Z,99759.63
2022-10-13T13:45:31.764Z,99757.00
2022-10-13T13:48:04.046Z,99760.31
2022-10-13T13:50:36.646Z,99755.88
2022-10-13T13:53:05.222Z,99751.34
2022-10-13T13:55:33.666Z,99754.78
2022-10-13T13:58:01.654Z,99754.63
2022-10-13T14:00:29.803Z,99746.31
2022-10-13T14:02:58.379Z,99746.19
2022-10-13T14:05:26.398Z,99751.06
2022-10-13T14:07:56.984Z,99749.03
2022-10-13T14:10:26.077Z,99748.69
2022-10-13T14:12:54.194Z,99743.31
2022-10-13T14:15:25.784Z,99745.69
2022-10-13T14:17:57.108Z,99748.75
2022-10-13T14:20:25.027Z,99748.94
2022-10-13T14:22:52.974Z,99736.19
2022-10-13T14:25:21.417Z,99742.91
2022-10-13T14:27:49.777Z,99734.91
2022-10-13T14:30:17.732Z,99732.06
2022-10-13T14:32:46.037Z,99736.53
2022-10-13T14:35:14.076Z,99733.44
2022-10-13T14:37:42.013Z,99729.75
2022-10-13T14:40:10.693Z,99730.72
2022-10-13T14:42:46.779Z,99729.09
2022-10-13T14:45:18.078Z,99732.97
2022-10-13T14:47:46.272Z,99732.28
2022-10-13T14:50:23.484Z,99733.84
2022-10-13T14:52:56.734Z,99735.28
2022-10-13T14:55:28.165Z,99733.47
2022-10-13T14:57:56.614Z,99732.50
2022-10-13T15:00:45.405Z,99727.19
2022-10-13T15:03:24.884Z,99727.37
2022-10-13T15:05:55.203Z,99730.19
2022-10-13T15:08:26.673Z,99729.72
2022-10-13T15:11:17.555Z,99726.78
2022-10-13T15:13:46.844Z,99722.56
2022-10-13T15:16:32.128Z,99724.00
2022-10-13T15:19:09.929Z,99729.94
2022-10-13T15:21:39.950Z,99723.12
2022-10-13T15:24:09.332Z,99725.09
2022-10-13T15:26:37.253Z,99725.47
2022-10-13T15:29:05.560Z,99730.03
2022-10-13T15:31:33.811Z,99730.97
2022-10-13T15:34:02.401Z,99731.66
2022-10-13T15:36:30.440Z,99722.94
2022-10-13T15:38:58.735Z,99723.09
2022-10-13T15:41:27.040Z,99716.06
2022-10-13T15:43:54.998Z,99724.84
2022-10-13T15:46:24.455Z,99727.09
2022-10-13T15:48:53.610Z,99721.38
2022-10-13T15:51:24.339Z,99722.12
2022-10-13T15:53:52.700Z,99721.97
2022-10-13T15:56:20.780Z,99716.69
2022-10-13T15:58:48.769Z,99716.34
2022-10-13T16:01:17.267Z,99719.06
2022-10-13T16:03:45.766Z,99720.66
2022-10-13T16:06:14.561Z,99716.69
2022-10-13T16:08:44.500Z,99718.94
2022-10-13T16:11:14.960Z,99717.66
2022-10-13T16:13:46.625Z,99716.16
2022-10-13T16:16:16.480Z,99719.25
2022-10-13T16:18:47.736Z,99719.03
2022-10-13T16:21:19.478Z,99721.38
2022-10-13T16:23:48.383Z,99713.84
2022-10-13T16:26:20.318Z,99717.88
2022-10-13T16:28:48.518Z,99709.84
2022-10-13T16:31:18.061Z,99715.94
2022-10-13T16:33:46.191Z,99715.00
2022-10-13T16:36:19.210Z,99721.25
2022-10-13T16:38:48.701Z,99721.09
2022-10-13T16:41:18.495Z,99711.06
2022-10-13T16:43:47.186Z,99721.88
2022-10-13T16:46:17.802Z,99714.22
2022-10-13T16:48:47.039Z,99721.38
2022-10-13T16:51:20.336Z,99733.31
2022-10-13T16:53:52.281Z,99719.22
2022-10-13T16:56:24.729Z,99731.16
2022-10-13T16:58:58.090Z,99722.78
2022-10-13T17:01:26.902Z,99729.53
2022-10-13T17:03:55.141Z,99727.53
2022-10-13T17:06:24.966Z,99725.28
2022-10-13T17:08:55.530Z,99728.03
2022-10-13T17:11:26.404Z,99729.75
2022-10-13T17:13:57.158Z,99737.62
2022-10-13T17:16:25.311Z,99735.69
2022-10-13T17:18:53.952Z,99742.87
2022-10-13T17:21:22.450Z,99735.81
2022-10-13T17:23:50.520Z,99737.62
2022-10-13T17:26:20.923Z,99735.00
2022-10-13T17:28:49.513Z,99735.44
2022-10-13T17:31:22.590Z,99737.75
2022-10-13T17:33:52.134Z,99730.56
2022-10-13T17:36:26.091Z,99731.38
2022-10-13T17:38:56.131Z,99730.00
2022-10-13T17:41:24.931Z,99733.69
2022-10-13T17:43:52.947Z,99726.78
2022-10-13T17:46:36.151Z,99731.16
2022-10-13T17:49:09.981Z,99728.03
2022-10-13T17:51:39.114Z,99721.66
2022-10-13T17:54:14.482Z,99727.94
2022-10-13T17:56:44.621Z,99724.25
2022-10-13T17:59:14.743Z,99728.59
2022-10-13T18:01:43.406Z,99723.53
2022-10-13T18:04:14.452Z,99723.28
2022-10-13T18:06:46.526Z,99723.50
2022-10-13T18:09:18.033Z,99727.09
2022-10-13T18:11:50.667Z,99722.91
2022-10-13T18:14:21.143Z,99714.06
2022-10-13T18:16:52.700Z,99722.84
2022-10-13T18:19:22.062Z,99723.91
2022-10-13T18:21:50.352Z,99720.28
2022-10-13T18:24:20.062Z,99732.69
2022-10-13T18:26:48.702Z,99721.28
2022-10-13T18:29:16.990Z,99715.91
2022-10-13T18:31:44.931Z,99720.53
2022-10-13T18:34:16.310Z,99721.25
2022-10-13T18:36:50.641Z,99714.09
2022-10-13T18:39:22.979Z,99720.16
2022-10-13T18:41:52.340Z,99716.78
2022-10-13T18:44:21.332Z,99716.84
2022-10-13T18:46:50.962Z,99708.94
2022-10-13T18:49:21.694Z,99710.97
2022-10-13T18:51:51.785Z,99713.41
2022-10-13T18:54:19.823Z,99710.03
2022-10-13T18:56:47.784Z,99703.13
2022-10-13T18:59:17.960Z,99715.44
2022-10-13T19:01:47.091Z,99711.94
2022-10-13T19:04:17.127Z,99708.34
2022-10-13T19:06:45.085Z,99708.34
2022-10-13T19:09:15.113Z,99702.31
2022-10-13T19:11:43.908Z,99699.69
2022-10-13T19:14:13.696Z,99708.34
2022-10-13T19:16:43.014Z,99703.19
2022-10-13T19:19:13.342Z,99702.41
2022-10-13T19:21:41.661Z,99708.53
2022-10-13T19:24:10.764Z,99706.72
2022-10-13T19:26:40.201Z,99707.62
2022-10-13T19:29:10.687Z,99703.31
2022-10-13T19:31:40.010Z,99708.53
2022-10-13T19:34:08.770Z,99710.41
2022-10-13T19:36:42.339Z,99701.63
2022-10-13T19:39:22.816Z,99690.34
2022-10-13T19:41:53.923Z,99699.81
2022-10-13T19:44:24.024Z,99702.44
2022-10-13T19:46:52.632Z,99700.66
2022-10-13T19:49:22.049Z,99698.13
2022-10-13T19:51:51.538Z,99692.97
2022-10-13T19:54:22.349Z,99693.81
2022-10-13T19:56:51.125Z,99697.31
2022-10-13T19:59:19.370Z,99694.72
2022-10-13T20:01:47.744Z,99697.28
2022-10-13T20:04:18.731Z,99702.50
2022-10-13T20:06:48.180Z,99701.69
2022-10-13T20:09:17.261Z,99698.16
2022-10-13T20:11:46.694Z,99702.50
2022-10-13T20:14:15.042Z,99698.16
2022-10-13T20:16:43.422Z,99707.69
2022-10-13T20:19:16.742Z,99707.62
2022-10-13T20:21:48.192Z,99705.03
2022-10-13T20:24:16.174Z,99715.44
2022-10-13T20:26:44.092Z,99714.53
2022-10-13T20:29:12.399Z,99708.47
2022-10-13T20:31:40.228Z,99698.06
2022-10-13T20:34:10.142Z,99698.00
2022-10-13T20:36:39.211Z,99704.06
2022-10-13T20:39:09.395Z,99704.91
2022-10-13T20:41:37.310Z,99709.38
2022-10-13T20:44:05.540Z,99711.97
2022-10-13T20:46:34.452Z,99705.75
2022-10-13T20:49:11.384Z,99707.47
2022-10-13T20:51:41.147Z,99706.72
2022-10-13T20:54:10.334Z,99703.16
2022-10-13T20:56:38.560Z,99699.69
2022-10-13T20:59:08.781Z,99702.38
2022-10-13T21:01:37.189Z,99701.50
2022-10-13T21:04:05.412Z,99701.53
2022-10-13T21:06:34.451Z,99703.31
2022-10-13T21:09:04.360Z,99706.78
2022-10-13T21:11:32.131Z,99705.06
2022-10-13T21:14:00.329Z,99696.41
2022-10-13T21:16:29.139Z,99703.31
2022-10-13T21:18:57.710Z,99698.13
2022-10-13T21:21:28.628Z,99700.72
2022-10-13T21:23:59.188Z,99699.81
2022-10-13T21:26:30.160Z,99697.25
2022-10-13T21:28:58.186Z,99692.94
2022-10-13T21:31:26.835Z,99696.44
2022-10-13T21:33:55.780Z,99694.69
2022-10-13T21:36:25.880Z,99695.56
2022-10-13T21:38:59.403Z,99691.22
2022-10-13T21:41:28.140Z,99689.47
2022-10-13T21:43:56.301Z,99691.22
2022-10-13T21:46:29.517Z,99698.19
2022-10-13T21:48:59.632Z,99692.16
2022-10-13T21:51:36.350Z,99692.09
2022-10-13T21:54:08.699Z,99690.31
2022-10-13T21:56:38.420Z,99693.72
2022-10-13T21:59:07.121Z,99691.22
2022-10-13T22:01:35.288Z,99687.63
2022-10-13T22:04:10.460Z,99681.59
2022-10-13T22:06:38.189Z,99689.41
2022-10-13T22:09:06.685Z,99689.41
2022-10-13T22:11:36.434Z,99680.81
2022-10-13T22:14:07.078Z,99686.84
2022-10-13T22:16:41.101Z,99679.00
2022-10-13T22:19:09.051Z,99681.59
2022-10-13T22:21:42.488Z,99679.03
2022-10-13T22:24:13.094Z,99679.91
2022-10-13T22:26:42.401Z,99680.78
2022-10-13T22:29:12.472Z,99684.25
2022-10-13T22:31:41.578Z,99681.66
2022-10-13T22:34:10.940Z,99676.44
2022-10-13T22:36:43.613Z,99672.06
2022-10-13T22:39:13.472Z,99675.53
2022-10-13T22:41:41.492Z,99670.41
2022-10-13T22:44:09.251Z,99665.13
2022-10-13T22:46:38.572Z,99665.13
2022-10-13T22:49:07.721Z,99661.59
2022-10-13T22:51:36.589Z,99658.22
2022-10-13T22:54:05.345Z,99662.53
2022-10-13T22:56:34.312Z,99657.31
2022-10-13T22:59:05.111Z,99659.19
2022-10-13T23:01:33.310Z,99664.31
2022-10-13T23:04:01.589Z,99663.38
2022-10-13T23:06:31.567Z,99658.09
2022-10-13T23:09:06.401Z,99651.19
2022-10-13T23:11:34.477Z,99665.87
2022-10-13T23:14:03.930Z,99661.72
2022-10-13T23:16:31.740Z,99657.37
2022-10-13T23:18:59.571Z,99659.97
2022-10-13T23:21:29.120Z,99665.19
2022-10-13T23:24:02.221Z,99659.91
2022-10-13T23:26:31.031Z,99653.03
2022-10-13T23:28:59.183Z,99654.78
2022-10-13T23:31:28.137Z,99655.63
2022-10-13T23:33:56.519Z,99656.53
2022-10-13T23:36:29.609Z,99653.88
2022-10-13T23:39:05.097Z,99648.66
2022-10-13T23:41:33.410Z,99648.72
2022-10-13T23:44:01.609Z,99650.34
2022-10-13T23:46:29.470Z,99649.50
2022-10-13T23:48:57.638Z,99652.03
2022-10-13T23:51:26.347Z,99653.03
2022-10-13T23:53:54.523Z,99646.03
2022-10-13T23:56:22.799Z,99651.25
2022-10-13T23:58:51.178Z,99646.97
